createdAt,value
2023-03-11T00:06:32.434Z,25.10
2023-03-11T00:09:34.845Z,23.50
2023-03-11T00:15:38.881Z,23.60
2023-03-11T00:18:40.660Z,24.80
2023-03-11T00:21:42.232Z,25.50
2023-03-11T00:27:45.680Z,28.00
2023-03-11T00:30:47.439Z,23.80
2023-03-11T00:33:49.036Z,23.90
2023-03-11T00:42:53.954Z,26.20
2023-03-11T00:45:55.638Z,21.70
2023-03-11T00:51:58.794Z,24.20
2023-03-11T00:58:04.893Z,21.40
2023-03-11T01:01:15.195Z,22.10
2023-03-11T01:04:17.001Z,20.20
2023-03-11T01:07:18.800Z,19.90
2023-03-11T01:10:20.706Z,19.10
2023-03-11T01:13:22.490Z,18.10
2023-03-11T01:16:24.447Z,21.40
2023-03-11T01:19:26.170Z,21.50
2023-03-11T01:22:28.500Z,21.30
2023-03-11T01:25:30.587Z,19.50
2023-03-11T01:28:32.285Z,18.60
2023-03-11T01:31:34.223Z,20.70
2023-03-11T01:37:37.552Z,18.80
2023-03-11T01:43:45.420Z,20.50
2023-03-11T01:46:53.290Z,20.60
2023-03-11T01:49:55.383Z,19.80
2023-03-11T01:52:57.048Z,20.60
2023-03-11T01:55:58.726Z,17.80
2023-03-11T01:59:00.672Z,19.40
2023-03-11T02:02:09.738Z,18.70
2023-03-11T02:05:11.380Z,19.40
2023-03-11T02:11:18.278Z,20.00
2023-03-11T02:14:20.415Z,18.20
2023-03-11T02:17:22.316Z,18.80
2023-03-11T02:20:36.306Z,18.30
2023-03-11T02:24:01.103Z,16.00
2023-03-11T02:27:10.684Z,17.20
2023-03-11T02:30:13.822Z,16.10
2023-03-11T02:33:15.850Z,14.30
2023-03-11T02:36:41.748Z,10.80
2023-03-11T02:39:45.624Z,12.40
2023-03-11T02:42:47.267Z,10.90
2023-03-11T02:45:49.713Z,8.50
2023-03-11T02:48:52.014Z,7.70
2023-03-11T02:51:53.557Z,6.90
2023-03-11T02:54:55.446Z,6.90
2023-03-11T02:57:57.240Z,6.90
2023-03-11T03:00:58.926Z,6.20
2023-03-11T03:04:00.649Z,8.70
2023-03-11T03:07:02.729Z,4.70
2023-03-11T03:10:05.721Z,5.20
2023-03-11T03:13:07.370Z,6.10
2023-03-11T03:16:08.974Z,2.60
2023-03-11T03:19:10.619Z,5.70
2023-03-11T03:22:12.325Z,4.10
2023-03-11T03:25:13.980Z,3.60
2023-03-11T03:28:15.543Z,4.00
2023-03-11T03:34:18.772Z,2.70
2023-03-11T03:37:21.064Z,3.50
2023-03-11T03:43:24.228Z,3.30
2023-03-11T03:46:25.953Z,9.90
2023-03-11T03:49:27.673Z,4.60
2023-03-11T03:52:29.594Z,3.10
2023-03-11T03:55:31.321Z,2.20
2023-03-11T03:58:33.177Z,4.30
2023-03-11T04:01:34.731Z,4.00
2023-03-11T04:07:37.705Z,4.80
2023-03-11T04:13:40.716Z,2.20
2023-03-11T04:22:45.755Z,2.80
2023-03-11T04:28:48.751Z,2.70
2023-03-11T04:34:51.811Z,5.60
2023-03-11T04:40:54.919Z,8.40
2023-03-11T04:43:56.673Z,5.30
2023-03-11T04:46:58.243Z,6.00
2023-03-11T04:53:01.257Z,4.60
2023-03-11T04:56:02.920Z,5.30
2023-03-11T05:02:06.140Z,8.10
2023-03-11T05:05:09.248Z,7.40
2023-03-11T05:08:10.898Z,7.00
2023-03-11T05:11:12.478Z,5.60
2023-03-11T05:17:15.640Z,7.40
2023-03-11T05:23:19.108Z,7.40
2023-03-11T05:26:20.693Z,6.30
2023-03-11T05:35:26.109Z,8.20
2023-03-11T05:38:27.925Z,5.80
2023-03-11T05:44:31.763Z,9.10
2023-03-11T05:47:33.662Z,9.30
2023-03-11T05:50:35.262Z,4.70
2023-03-11T05:59:40.236Z,5.60
2023-03-11T06:05:50.193Z,5.30
2023-03-11T06:08:51.936Z,4.10
2023-03-11T06:11:53.560Z,5.80
2023-03-11T06:17:56.698Z,8.60
2023-03-11T06:20:59.440Z,10.20
2023-03-11T06:24:01.305Z,11.80
2023-03-11T06:27:03.179Z,8.20
2023-03-11T06:30:05.434Z,14.10
2023-03-11T06:33:07.018Z,9.80
2023-03-11T06:36:08.807Z,10.40
2023-03-11T06:39:13.359Z,12.00
2023-03-11T06:42:15.075Z,11.80
2023-03-11T06:48:21.947Z,8.60
2023-03-11T06:54:25.110Z,6.90
2023-03-11T06:57:26.738Z,13.50
2023-03-11T07:03:30.677Z,7.50
2023-03-11T07:06:32.243Z,8.10
2023-03-11T07:09:34.129Z,12.00
2023-03-11T07:12:35.893Z,12.10
2023-03-11T07:18:38.973Z,7.40
2023-03-11T07:27:47.184Z,10.20
2023-03-11T07:30:48.981Z,10.30
2023-03-11T07:33:51.342Z,11.60
2023-03-11T07:36:52.929Z,13.60
2023-03-11T07:39:54.870Z,12.70
2023-03-11T07:42:56.480Z,12.80
2023-03-11T07:46:04.600Z,11.50
2023-03-11T07:49:06.182Z,10.90
2023-03-11T07:55:09.859Z,10.10
2023-03-11T07:58:11.369Z,9.60
2023-03-11T08:04:15.786Z,7.40
2023-03-11T08:07:17.577Z,4.90
2023-03-11T08:13:21.140Z,6.80
2023-03-11T08:16:22.884Z,4.90
2023-03-11T08:22:26.232Z,8.00
2023-03-11T08:25:27.858Z,7.10
2023-03-11T08:28:29.630Z,8.60
2023-03-11T08:31:32.659Z,7.80
2023-03-11T08:34:34.361Z,8.40
2023-03-11T08:37:36.240Z,12.30
2023-03-11T08:43:39.898Z,14.00
2023-03-11T08:46:41.878Z,9.80
2023-03-11T08:52:45.682Z,11.00
2023-03-11T08:55:47.229Z,10.50
2023-03-11T09:01:50.579Z,11.20
2023-03-11T09:04:52.106Z,7.00
2023-03-11T09:10:55.666Z,10.10
2023-03-11T09:16:58.858Z,11.50
2023-03-11T09:23:02.143Z,13.80
2023-03-11T09:26:04.173Z,12.30
2023-03-11T09:29:05.740Z,13.90
2023-03-11T09:35:09.657Z,12.60
2023-03-11T09:38:11.300Z,10.70
2023-03-11T09:44:43.417Z,11.60
2023-03-11T09:47:44.976Z,12.10
2023-03-11T09:53:53.151Z,16.10
2023-03-11T09:56:55.278Z,14.50
2023-03-11T09:59:57.184Z,15.20
2023-03-11T10:03:00.018Z,15.50
2023-03-11T10:06:25.308Z,14.70
2023-03-11T10:09:37.590Z,16.00
2023-03-11T10:12:43.684Z,13.90
2023-03-11T10:15:59.453Z,14.50
2023-03-11T10:19:25.064Z,11.30
2023-03-11T10:22:30.588Z,14.30
2023-03-11T10:26:03.771Z,11.10
2023-03-11T10:29:28.199Z,14.60
2023-03-11T10:32:36.100Z,16.00
2023-03-11T10:35:42.163Z,13.90
2023-03-11T10:38:48.247Z,16.90
2023-03-11T10:41:53.761Z,12.80
2023-03-11T10:44:55.397Z,15.70
2023-03-11T10:47:56.940Z,15.70
2023-03-11T10:51:11.190Z,14.80
2023-03-11T10:54:30.824Z,17.40
2023-03-11T10:57:37.327Z,14.30
2023-03-11T11:00:38.950Z,16.90
2023-03-11T11:03:46.273Z,16.30
2023-03-11T11:06:47.885Z,16.60
2023-03-11T11:10:12.022Z,17.30
2023-03-11T11:13:13.819Z,17.20
2023-03-11T11:19:20.957Z,17.60
2023-03-11T11:22:23.751Z,16.10
2023-03-11T11:25:32.837Z,15.90
2023-03-11T11:28:34.864Z,19.30
2023-03-11T11:31:37.730Z,16.80
2023-03-11T11:34:39.535Z,20.50
2023-03-11T11:37:49.834Z,17.70
2023-03-11T11:40:52.147Z,20.70
2023-03-11T11:43:56.236Z,21.20
2023-03-11T11:47:06.222Z,21.30
2023-03-11T11:50:15.631Z,18.20
2023-03-11T11:53:45.427Z,17.90
2023-03-11T11:56:47.007Z,20.90
2023-03-11T11:59:48.861Z,20.70
2023-03-11T12:03:12.123Z,20.40
2023-03-11T12:06:19.612Z,22.50
2023-03-11T12:09:24.398Z,22.20
2023-03-11T12:12:46.728Z,22.80
2023-03-11T12:15:55.724Z,23.20
2023-03-11T12:18:59.654Z,23.70
2023-03-11T12:22:35.307Z,24.80
2023-03-11T12:26:10.866Z,25.90
2023-03-11T12:29:26.580Z,28.40
2023-03-11T12:32:40.339Z,32.40
2023-03-11T12:35:48.806Z,26.90
2023-03-11T12:38:51.068Z,25.50
2023-03-11T12:42:22.571Z,25.60
2023-03-11T12:45:50.764Z,26.20
2023-03-11T12:49:07.830Z,27.70
2023-03-11T12:52:13.187Z,26.50
2023-03-11T12:55:17.869Z,26.20
2023-03-11T12:58:35.549Z,26.30
2023-03-11T13:01:42.953Z,21.90
2023-03-11T13:04:51.589Z,23.40
2023-03-11T13:08:12.133Z,21.10
2023-03-11T13:11:36.871Z,22.10
2023-03-11T13:14:38.546Z,21.50
2023-03-11T13:20:41.804Z,23.40
2023-03-11T13:23:43.385Z,23.60
2023-03-11T13:27:04.672Z,20.40
2023-03-11T13:30:17.323Z,21.90
2023-03-11T13:33:45.290Z,21.30
2023-03-11T13:36:55.486Z,22.40
2023-03-11T13:40:02.743Z,19.50
2023-03-11T13:43:17.856Z,20.50
2023-03-11T13:46:19.467Z,26.00
2023-03-11T13:49:39.733Z,21.60
2023-03-11T13:52:49.194Z,21.50
2023-03-11T13:55:50.919Z,24.20
2023-03-11T14:01:56.887Z,22.00
2023-03-11T14:05:06.406Z,20.10
2023-03-11T14:08:27.581Z,20.00
2023-03-11T14:11:29.576Z,19.60
2023-03-11T14:14:42.866Z,20.50
2023-03-11T14:17:45.688Z,23.20
2023-03-11T14:20:49.381Z,29.00
2023-03-11T14:23:54.291Z,23.70
2023-03-11T14:27:00.148Z,25.20
2023-03-11T14:30:01.851Z,22.00
2023-03-11T14:36:11.831Z,21.80
2023-03-11T14:39:22.515Z,23.50
2023-03-11T14:42:38.803Z,23.00
2023-03-11T14:45:42.256Z,23.90
2023-03-11T14:48:43.936Z,22.30
2023-03-11T14:54:47.803Z,23.20
2023-03-11T14:57:55.611Z,24.10
2023-03-11T15:01:19.752Z,22.00
2023-03-11T15:04:33.738Z,22.70
2023-03-11T15:07:36.732Z,25.20
2023-03-11T15:10:38.479Z,24.50
2023-03-11T15:13:42.815Z,26.00
2023-03-11T15:16:44.398Z,23.90
2023-03-11T15:19:45.999Z,25.80
2023-03-11T15:22:56.688Z,26.40
2023-03-11T15:25:59.155Z,25.40
2023-03-11T15:29:03.737Z,33.50
2023-03-11T15:32:25.174Z,31.20
2023-03-11T15:35:29.152Z,36.60
2023-03-11T15:38:32.135Z,27.60
2023-03-11T15:41:33.734Z,25.00
2023-03-11T15:45:00.388Z,22.80
2023-03-11T15:48:02.024Z,25.50
2023-03-11T15:51:03.612Z,26.20
2023-03-11T15:54:05.243Z,25.70
2023-03-11T16:00:21.720Z,30.00
2023-03-11T16:03:24.346Z,28.20
2023-03-11T16:06:25.912Z,30.90
2023-03-11T16:09:27.511Z,29.10
2023-03-11T16:12:29.124Z,30.90
2023-03-11T16:18:33.626Z,29.10
2023-03-11T16:21:40.200Z,29.40
2023-03-11T16:24:41.841Z,30.50
2023-03-11T16:27:43.378Z,30.90
2023-03-11T16:30:45.537Z,33.10
2023-03-11T16:33:47.248Z,32.40
2023-03-11T16:36:48.780Z,32.50
2023-03-11T16:39:50.406Z,31.70
2023-03-11T16:42:58.398Z,31.50
2023-03-11T16:45:59.981Z,32.80
2023-03-11T16:49:01.599Z,30.30
2023-03-11T16:52:03.295Z,30.80
2023-03-11T16:55:05.530Z,29.10
2023-03-11T16:58:07.147Z,31.80
2023-03-11T17:01:12.170Z,31.30
2023-03-11T17:04:13.776Z,32.60
2023-03-11T17:07:15.530Z,31.50
2023-03-11T17:10:17.743Z,34.20
2023-03-11T17:13:19.475Z,37.00
2023-03-11T17:19:25.264Z,38.60
2023-03-11T17:22:26.816Z,42.50
2023-03-11T17:25:28.460Z,42.10
2023-03-11T17:28:30.114Z,37.80
2023-03-11T17:31:31.702Z,37.30
2023-03-11T17:34:33.566Z,36.30
2023-03-11T17:40:38.059Z,41.00
2023-03-11T17:43:40.540Z,39.10
2023-03-11T17:46:42.182Z,37.90
2023-03-11T17:49:43.935Z,38.60
2023-03-11T17:55:50.169Z,32.60
2023-03-11T17:58:52.248Z,29.10
2023-03-11T18:01:53.895Z,36.20
2023-03-11T18:07:57.329Z,36.50
2023-03-11T18:11:02.354Z,33.50
2023-03-11T18:14:04.111Z,31.20
2023-03-11T18:17:05.773Z,31.50
2023-03-11T18:23:09.414Z,28.60
2023-03-11T18:26:13.619Z,27.70
2023-03-11T18:29:15.180Z,23.60
2023-03-11T18:35:18.686Z,22.30
2023-03-11T18:38:20.274Z,23.20
2023-03-11T18:41:22.409Z,26.10
2023-03-11T18:44:24.107Z,25.00
2023-03-11T18:47:26.277Z,23.80
2023-03-11T18:53:30.365Z,25.50
2023-03-11T18:56:31.954Z,24.90
2023-03-11T18:59:33.765Z,25.20
2023-03-11T19:05:37.009Z,24.70
2023-03-11T19:11:40.515Z,28.30
2023-03-11T19:14:42.301Z,27.10
2023-03-11T19:20:56.436Z,29.70
2023-03-11T19:26:59.883Z,26.30
2023-03-11T19:33:03.097Z,24.50
2023-03-11T19:36:06.190Z,23.50
2023-03-11T19:39:08.416Z,27.90
2023-03-11T19:42:09.999Z,25.00
2023-03-11T19:45:11.617Z,25.80
2023-03-11T19:48:13.370Z,23.20
2023-03-11T19:54:17.163Z,30.00
2023-03-11T19:57:18.864Z,28.10
2023-03-11T20:00:21.078Z,27.60
2023-03-11T20:03:23.145Z,31.20
2023-03-11T20:06:24.714Z,29.40
2023-03-11T20:09:26.433Z,27.40
2023-03-11T20:12:31.048Z,26.10
2023-03-11T20:15:32.937Z,24.10
2023-03-11T20:18:34.657Z,28.10
2023-03-11T20:21:36.330Z,26.50
2023-03-11T20:27:39.765Z,29.40
2023-03-11T20:30:41.494Z,26.20
2023-03-11T20:33:43.548Z,27.30
2023-03-11T20:36:45.271Z,29.50
2023-03-11T20:42:48.506Z,29.30
2023-03-11T20:45:50.122Z,25.60
2023-03-11T20:48:51.942Z,24.10
2023-03-11T20:54:55.210Z,25.40
2023-03-11T20:57:56.786Z,25.60
2023-03-11T21:00:58.386Z,26.40
2023-03-11T21:04:02.131Z,25.20
2023-03-11T21:07:03.883Z,25.10
2023-03-11T21:10:07.760Z,30.60
2023-03-11T21:13:09.321Z,30.20
2023-03-11T21:16:11.121Z,28.70
2023-03-11T21:22:14.828Z,28.20
2023-03-11T21:28:18.003Z,30.10
2023-03-11T21:31:21.578Z,28.50
2023-03-11T21:34:23.352Z,28.80
2023-03-11T21:40:27.253Z,29.40
2023-03-11T21:43:28.949Z,33.30
2023-03-11T21:49:33.382Z,32.20
2023-03-11T21:55:36.547Z,35.90
2023-03-11T21:58:38.300Z,44.50
2023-03-11T22:04:42.690Z,39.20
2023-03-11T22:07:44.465Z,36.50
2023-03-11T22:13:49.694Z,37.60
2023-03-11T22:16:51.744Z,38.00
2023-03-11T22:19:53.691Z,34.30
2023-03-11T22:22:55.230Z,36.90
2023-03-11T22:25:57.051Z,33.80
2023-03-11T22:32:00.245Z,35.80
2023-03-11T22:38:03.836Z,39.20
2023-03-11T22:41:06.818Z,36.60
2023-03-11T22:44:08.422Z,44.30
2023-03-11T22:47:10.063Z,44.50
2023-03-11T22:50:11.685Z,43.40
2023-03-11T22:53:13.494Z,39.50
2023-03-11T22:59:17.843Z,44.20
2023-03-11T23:02:19.419Z,42.00
2023-03-11T23:05:22.063Z,45.10
2023-03-11T23:08:23.726Z,40.70
2023-03-11T23:11:25.699Z,43.60
2023-03-11T23:14:33.984Z,42.90
2023-03-11T23:17:45.571Z,41.40
2023-03-11T23:20:47.134Z,41.00
2023-03-11T23:23:48.798Z,42.40
2023-03-11T23:26:50.350Z,40.40
2023-03-11T23:29:51.944Z,44.80
2023-03-11T23:32:53.521Z,39.70
2023-03-11T23:35:55.119Z,40.70
2023-03-11T23:38:57.617Z,41.70
2023-03-11T23:41:59.226Z,39.80
2023-03-11T23:45:01.122Z,42.10
2023-03-11T23:51:04.882Z,40.40
2023-03-11T23:54:07.571Z,38.80
2023-03-11T23:57:10.322Z,34.60
